sensor_id;sensor_type;location;lat;lon;timestamp;pressure;altitude;pressure_sealevel;temperature
71640;BMP280;60912;48.968;10.124;2022-12-29T00:01:44;96214.59;;;8.09
71640;BMP280;60912;48.968;10.124;2022-12-29T00:04:12;96213.47;;;8.05
71640;BMP280;60912;48.968;10.124;2022-12-29T00:06:38;96204.72;;;8.06
71640;BMP280;60912;48.968;10.124;2022-12-29T00:09:03;96203.97;;;8.06
71640;BMP280;60912;48.968;10.124;2022-12-29T00:11:29;96200.69;;;8.07
71640;BMP280;60912;48.968;10.124;2022-12-29T00:13:55;96211.31;;;8.11
71640;BMP280;60912;48.968;10.124;2022-12-29T00:16:44;96199.97;;;8.07
71640;BMP280;60912;48.968;10.124;2022-12-29T00:19:11;96193.38;;;8.10
71640;BMP280;60912;48.968;10.124;2022-12-29T00:21:57;96198.53;;;8.14
71640;BMP280;60912;48.968;10.124;2022-12-29T00:24:42;96200.34;;;8.11
71640;BMP280;60912;48.968;10.124;2022-12-29T00:27:27;96193.00;;;8.06
71640;BMP280;60912;48.968;10.124;2022-12-29T00:30:18;96194.78;;;8.03
71640;BMP280;60912;48.968;10.124;2022-12-29T00:36:10;96195.75;;;8.06
71640;BMP280;60912;48.968;10.124;2022-12-29T00:38:40;96191.94;;;8.09
71640;BMP280;60912;48.968;10.124;2022-12-29T00:41:25;96181.13;;;8.11
71640;BMP280;60912;48.968;10.124;2022-12-29T00:44:12;96172.03;;;8.16
71640;BMP280;60912;48.968;10.124;2022-12-29T00:46:40;96172.44;;;8.20
71640;BMP280;60912;48.968;10.124;2022-12-29T00:49:07;96179.41;;;8.21
71640;BMP280;60912;48.968;10.124;2022-12-29T00:51:52;96172.84;;;8.24
71640;BMP280;60912;48.968;10.124;2022-12-29T00:54:17;96172.31;;;8.26
71640;BMP280;60912;48.968;10.124;2022-12-29T00:56:46;96167.56;;;8.26
71640;BMP280;60912;48.968;10.124;2022-12-29T00:59:12;96167.03;;;8.28
71640;BMP280;60912;48.968;10.124;2022-12-29T01:01:38;96175.31;;;8.35
71640;BMP280;60912;48.968;10.124;2022-12-29T01:04:04;96175.00;;;8.39
71640;BMP280;60912;48.968;10.124;2022-12-29T01:06:30;96179.41;;;8.42
71640;BMP280;60912;48.968;10.124;2022-12-29T01:08:56;96176.34;;;8.45
71640;BMP280;60912;48.968;10.124;2022-12-29T01:11:40;96178.59;;;8.55
71640;BMP280;60912;48.968;10.124;2022-12-29T01:14:06;96176.28;;;8.59
71640;BMP280;60912;48.968;10.124;2022-12-29T01:16:32;96168.22;;;8.61
71640;BMP280;60912;48.968;10.124;2022-12-29T01:18:57;96175.16;;;8.62
71640;BMP280;60912;48.968;10.124;2022-12-29T01:21:23;96174.50;;;8.69
71640;BMP280;60912;48.968;10.124;2022-12-29T01:23:49;96176.91;;;8.72
71640;BMP280;60912;48.968;10.124;2022-12-29T01:26:16;96169.41;;;8.73
71640;BMP280;60912;48.968;10.124;2022-12-29T01:28:42;96170.53;;;8.77
71640;BMP280;60912;48.968;10.124;2022-12-29T01:31:09;96166.38;;;8.84
71640;BMP280;60912;48.968;10.124;2022-12-29T01:33:34;96177.94;;;8.90
71640;BMP280;60912;48.968;10.124;2022-12-29T01:36:01;96170.41;;;8.90
71640;BMP280;60912;48.968;10.124;2022-12-29T01:38:27;96172.03;;;8.86
71640;BMP280;60912;48.968;10.124;2022-12-29T01:40:52;96170.97;;;8.89
71640;BMP280;60912;48.968;10.124;2022-12-29T01:43:17;96184.16;;;8.90
71640;BMP280;60912;48.968;10.124;2022-12-29T01:45:50;96183.22;;;8.88
71640;BMP280;60912;48.968;10.124;2022-12-29T01:48:17;96179.00;;;8.87
71640;BMP280;60912;48.968;10.124;2022-12-29T01:50:49;96175.53;;;8.86
71640;BMP280;60912;48.968;10.124;2022-12-29T01:53:20;96177.94;;;8.90
71640;BMP280;60912;48.968;10.124;2022-12-29T01:55:56;96172.84;;;8.94
71640;BMP280;60912;48.968;10.124;2022-12-29T01:58:27;96171.34;;;8.93
71640;BMP280;60912;48.968;10.124;2022-12-29T02:00:54;96169.88;;;8.92
71640;BMP280;60912;48.968;10.124;2022-12-29T02:03:21;96171.03;;;8.97
71640;BMP280;60912;48.968;10.124;2022-12-29T02:08:35;96169.38;;;9.01
71640;BMP280;60912;48.968;10.124;2022-12-29T02:11:02;96167.19;;;9.00
71640;BMP280;60912;48.968;10.124;2022-12-29T02:13:28;96159.31;;;8.96
71640;BMP280;60912;48.968;10.124;2022-12-29T02:16:18;96152.84;;;8.93
71640;BMP280;60912;48.968;10.124;2022-12-29T02:32:33;96152.13;;;8.93
71640;BMP280;60912;48.968;10.124;2022-12-29T02:38:03;96145.50;;;8.88
71640;BMP280;60912;48.968;10.124;2022-12-29T02:43:26;96137.25;;;8.88
71640;BMP280;60912;48.968;10.124;2022-12-29T02:46:01;96130.66;;;8.91
71640;BMP280;60912;48.968;10.124;2022-12-29T02:48:37;96133.09;;;8.95
71640;BMP280;60912;48.968;10.124;2022-12-29T02:51:06;96135.09;;;8.94
71640;BMP280;60912;48.968;10.124;2022-12-29T02:53:34;96133.63;;;8.93
71640;BMP280;60912;48.968;10.124;2022-12-29T02:56:20;96134.94;;;9.00
71640;BMP280;60912;48.968;10.124;2022-12-29T02:58:46;96127.28;;;9.06
71640;BMP280;60912;48.968;10.124;2022-12-29T03:04:26;96126.22;;;9.09
71640;BMP280;60912;48.968;10.124;2022-12-29T03:09:41;96124.00;;;9.08
71640;BMP280;60912;48.968;10.124;2022-12-29T03:12:30;96116.66;;;9.10
71640;BMP280;60912;48.968;10.124;2022-12-29T03:15:34;96123.47;;;9.09
71640;BMP280;60912;48.968;10.124;2022-12-29T03:18:23;96116.84;;;9.12
71640;BMP280;60912;48.968;10.124;2022-12-29T03:20:53;96111.34;;;9.12
71640;BMP280;60912;48.968;10.124;2022-12-29T03:23:21;96109.88;;;9.11
71640;BMP280;60912;48.968;10.124;2022-12-29T03:25:52;96115.22;;;9.09
71640;BMP280;60912;48.968;10.124;2022-12-29T03:28:28;96112.47;;;9.09
71640;BMP280;60912;48.968;10.124;2022-12-29T03:30:57;96120.09;;;9.03
71640;BMP280;60912;48.968;10.124;2022-12-29T03:33:25;96108.59;;;9.05
71640;BMP280;60912;48.968;10.124;2022-12-29T03:35:57;96113.53;;;9.06
71640;BMP280;60912;48.968;10.124;2022-12-29T03:38:25;96113.75;;;9.08
71640;BMP280;60912;48.968;10.124;2022-12-29T03:40:56;96111.00;;;9.08
71640;BMP280;60912;48.968;10.124;2022-12-29T03:43:24;96109.72;;;9.09
71640;BMP280;60912;48.968;10.124;2022-12-29T03:45:50;96109.53;;;9.07
71640;BMP280;60912;48.968;10.124;2022-12-29T03:48:15;96110.59;;;9.04
71640;BMP280;60912;48.968;10.124;2022-12-29T03:50:41;96100.88;;;9.03
71640;BMP280;60912;48.968;10.124;2022-12-29T03:53:06;96100.88;;;9.03
71640;BMP280;60912;48.968;10.124;2022-12-29T03:55:32;96105.44;;;9.01
71640;BMP280;60912;48.968;10.124;2022-12-29T03:57:57;96101.78;;;8.98
71640;BMP280;60912;48.968;10.124;2022-12-29T04:00:22;96101.19;;;8.92
71640;BMP280;60912;48.968;10.124;2022-12-29T04:02:48;96092.94;;;8.92
71640;BMP280;60912;48.968;10.124;2022-12-29T04:05:13;96089.28;;;8.89
71640;BMP280;60912;48.968;10.124;2022-12-29T04:07:39;96085.41;;;8.85
71640;BMP280;60912;48.968;10.124;2022-12-29T04:10:04;96090.31;;;8.79
71640;BMP280;60912;48.968;10.124;2022-12-29T04:12:30;96097.97;;;8.73
71640;BMP280;60912;48.968;10.124;2022-12-29T04:14:55;96094.31;;;8.70
71640;BMP280;60912;48.968;10.124;2022-12-29T04:17:20;96102.34;;;8.68
71640;BMP280;60912;48.968;10.124;2022-12-29T04:19:46;96095.72;;;8.64
71640;BMP280;60912;48.968;10.124;2022-12-29T04:22:11;96094.22;;;8.63
71640;BMP280;60912;48.968;10.124;2022-12-29T04:24:37;96100.13;;;8.67
71640;BMP280;60912;48.968;10.124;2022-12-29T04:27:02;96094.22;;;8.63
71640;BMP280;60912;48.968;10.124;2022-12-29T04:29:28;96099.72;;;8.63
71640;BMP280;60912;48.968;10.124;2022-12-29T04:31:53;96106.88;;;8.58
71640;BMP280;60912;48.968;10.124;2022-12-29T04:34:19;96108.66;;;8.56
71640;BMP280;60912;48.968;10.124;2022-12-29T04:36:44;96096.75;;;8.53
71640;BMP280;60912;48.968;10.124;2022-12-29T04:39:09;96098.91;;;8.47
71640;BMP280;60912;48.968;10.124;2022-12-29T04:41:35;96094.84;;;8.40
71640;BMP280;60912;48.968;10.124;2022-12-29T04:44:00;96102.66;;;8.36
71640;BMP280;60912;48.968;10.124;2022-12-29T04:46:25;96094.56;;;8.31
71640;BMP280;60912;48.968;10.124;2022-12-29T04:48:51;96096.41;;;8.28
71640;BMP280;60912;48.968;10.124;2022-12-29T04:51:16;96102.56;;;8.21
71640;BMP280;60912;48.968;10.124;2022-12-29T04:53:42;96101.28;;;8.22
71640;BMP280;60912;48.968;10.124;2022-12-29T04:56:08;96104.03;;;8.22
71640;BMP280;60912;48.968;10.124;2022-12-29T04:58:34;96100.34;;;8.20
71640;BMP280;60912;48.968;10.124;2022-12-29T05:01:00;96101.28;;;8.22
71640;BMP280;60912;48.968;10.124;2022-12-29T05:03:25;96103.69;;;8.26
71640;BMP280;60912;48.968;10.124;2022-12-29T05:05:53;96095.66;;;8.28
71640;BMP280;60912;48.968;10.124;2022-12-29T05:08:19;96096.19;;;8.26
71640;BMP280;60912;48.968;10.124;2022-12-29T05:10:45;96097.88;;;8.29
71640;BMP280;60912;48.968;10.124;2022-12-29T05:13:11;96102.41;;;8.27
71640;BMP280;60912;48.968;10.124;2022-12-29T05:15:36;96101.34;;;8.30
71640;BMP280;60912;48.968;10.124;2022-12-29T05:18:02;96102.50;;;8.34
71640;BMP280;60912;48.968;10.124;2022-12-29T05:20:27;96098.06;;;8.31
71640;BMP280;60912;48.968;10.124;2022-12-29T05:22:52;96099.88;;;8.29
71640;BMP280;60912;48.968;10.124;2022-12-29T05:25:18;96104.09;;;8.30
71640;BMP280;60912;48.968;10.124;2022-12-29T05:27:43;96100.41;;;8.27
71640;BMP280;60912;48.968;10.124;2022-12-29T05:30:09;96095.66;;;8.28
71640;BMP280;60912;48.968;10.124;2022-12-29T05:32:34;96093.97;;;8.25
71640;BMP280;60912;48.968;10.124;2022-12-29T05:35:00;96095.97;;;8.24
71640;BMP280;60912;48.968;10.124;2022-12-29T05:37:25;96097.47;;;8.25
71640;BMP280;60912;48.968;10.124;2022-12-29T05:39:50;96092.84;;;8.20
71640;BMP280;60912;48.968;10.124;2022-12-29T05:42:16;96089.72;;;8.16
71640;BMP280;60912;48.968;10.124;2022-12-29T05:44:41;96097.22;;;8.16
71640;BMP280;60912;48.968;10.124;2022-12-29T05:47:06;96104.97;;;8.04
71640;BMP280;60912;48.968;10.124;2022-12-29T05:49:32;96106.94;;;7.96
71640;BMP280;60912;48.968;10.124;2022-12-29T05:51:57;96100.50;;;7.93
71640;BMP280;60912;48.968;10.124;2022-12-29T05:54:23;96099.53;;;7.91
71640;BMP280;60912;48.968;10.124;2022-12-29T05:56:48;96106.28;;;7.90
71640;BMP280;60912;48.968;10.124;2022-12-29T05:59:14;96110.66;;;7.85
71640;BMP280;60912;48.968;10.124;2022-12-29T06:01:39;96116.47;;;7.82
71640;BMP280;60912;48.968;10.124;2022-12-29T06:04:04;96112.78;;;7.79
71640;BMP280;60912;48.968;10.124;2022-12-29T06:06:33;96105.22;;;7.72
71640;BMP280;60912;48.968;10.124;2022-12-29T06:08:59;96109.56;;;7.67
71640;BMP280;60912;48.968;10.124;2022-12-29T06:11:24;96122.00;;;7.68
71640;BMP280;60912;48.968;10.124;2022-12-29T06:13:50;96124.75;;;7.68
71640;BMP280;60912;48.968;10.124;2022-12-29T06:16:15;96135.38;;;7.72
71640;BMP280;60912;48.968;10.124;2022-12-29T06:18:40;96133.59;;;7.75
71640;BMP280;60912;48.968;10.124;2022-12-29T06:21:06;96123.75;;;7.79
71640;BMP280;60912;48.968;10.124;2022-12-29T06:23:31;96123.22;;;7.81
71640;BMP280;60912;48.968;10.124;2022-12-29T06:25:57;96111.19;;;7.84
71640;BMP280;60912;48.968;10.124;2022-12-29T06:28:22;96106.28;;;7.90
71640;BMP280;60912;48.968;10.124;2022-12-29T06:30:48;96108.66;;;7.86
71640;BMP280;60912;48.968;10.124;2022-12-29T06:33:14;96102.41;;;7.85
71640;BMP280;60912;48.968;10.124;2022-12-29T06:35:39;96112.66;;;7.85
71640;BMP280;60912;48.968;10.124;2022-12-29T06:38:05;96114.88;;;7.86
71640;BMP280;60912;48.968;10.124;2022-12-29T06:40:30;96111.03;;;7.89
71640;BMP280;60912;48.968;10.124;2022-12-29T06:42:56;96108.72;;;7.93
71640;BMP280;60912;48.968;10.124;2022-12-29T06:45:21;96095.84;;;7.88
71640;BMP280;60912;48.968;10.124;2022-12-29T06:47:47;96092.59;;;7.90
71640;BMP280;60912;48.968;10.124;2022-12-29T06:50:12;96106.72;;;7.94
71640;BMP280;60912;48.968;10.124;2022-12-29T06:52:37;96107.56;;;7.89
71640;BMP280;60912;48.968;10.124;2022-12-29T06:55:03;96115.00;;;7.81
71640;BMP280;60912;48.968;10.124;2022-12-29T06:57:28;96111.19;;;7.84
71640;BMP280;60912;48.968;10.124;2022-12-29T06:59:54;96121.00;;;7.79
71640;BMP280;60912;48.968;10.124;2022-12-29T07:02:23;96119.22;;;7.82
71640;BMP280;60912;48.968;10.124;2022-12-29T07:04:50;96121.84;;;7.87
71640;BMP280;60912;48.968;10.124;2022-12-29T07:07:17;96111.03;;;7.89
71640;BMP280;60912;48.968;10.124;2022-12-29T07:09:42;96121.38;;;7.96
71640;BMP280;60912;48.968;10.124;2022-12-29T07:12:08;96122.50;;;8.01
71640;BMP280;60912;48.968;10.124;2022-12-29T07:14:33;96114.69;;;8.05
71640;BMP280;60912;48.968;10.124;2022-12-29T07:16:59;96109.63;;;8.09
71640;BMP280;60912;48.968;10.124;2022-12-29T07:19:24;96122.13;;;8.18
71640;BMP280;60912;48.968;10.124;2022-12-29T07:21:50;96129.41;;;8.15
71640;BMP280;60912;48.968;10.124;2022-12-29T07:24:15;96120.22;;;8.13
71640;BMP280;60912;48.968;10.124;2022-12-29T07:26:40;96113.69;;;8.16
71640;BMP280;60912;48.968;10.124;2022-12-29T07:29:06;96118.00;;;8.11
71640;BMP280;60912;48.968;10.124;2022-12-29T07:31:32;96118.63;;;8.17
71640;BMP280;60912;48.968;10.124;2022-12-29T07:33:57;96114.06;;;8.20
71640;BMP280;60912;48.968;10.124;2022-12-29T07:36:23;96115.88;;;8.17
71640;BMP280;60912;48.968;10.124;2022-12-29T07:38:48;96103.44;;;8.16
71640;BMP280;60912;48.968;10.124;2022-12-29T07:41:13;96115.16;;;8.17
71640;BMP280;60912;48.968;10.124;2022-12-29T07:43:39;96109.31;;;8.20
71640;BMP280;60912;48.968;10.124;2022-12-29T07:46:04;96115.88;;;8.17
71640;BMP280;60912;48.968;10.124;2022-12-29T07:48:30;96100.34;;;8.20
71640;BMP280;60912;48.968;10.124;2022-12-29T07:50:56;96112.63;;;8.19
71640;BMP280;60912;48.968;10.124;2022-12-29T07:53:22;96112.50;;;8.11
71640;BMP280;60912;48.968;10.124;2022-12-29T07:55:47;96115.47;;;8.13
71640;BMP280;60912;48.968;10.124;2022-12-29T07:58:13;96115.34;;;8.19
71640;BMP280;60912;48.968;10.124;2022-12-29T08:00:38;96128.00;;;8.22
71640;BMP280;60912;48.968;10.124;2022-12-29T08:03:04;96124.06;;;8.30
71640;BMP280;60912;48.968;10.124;2022-12-29T08:05:33;96124.25;;;8.32
71640;BMP280;60912;48.968;10.124;2022-12-29T08:07:59;96124.50;;;8.42
71640;BMP280;60912;48.968;10.124;2022-12-29T08:10:24;96131.59;;;8.37
71640;BMP280;60912;48.968;10.124;2022-12-29T08:12:50;96133.28;;;8.40
71640;BMP280;60912;48.968;10.124;2022-12-29T08:15:16;96131.53;;;8.50
71640;BMP280;60912;48.968;10.124;2022-12-29T08:17:41;96134.13;;;8.56
71640;BMP280;60912;48.968;10.124;2022-12-29T08:20:07;96135.97;;;8.61
71640;BMP280;60912;48.968;10.124;2022-12-29T08:22:33;96140.44;;;8.72
71640;BMP280;60912;48.968;10.124;2022-12-29T08:24:58;96133.69;;;8.73
71640;BMP280;60912;48.968;10.124;2022-12-29T08:27:24;96139.78;;;8.79
71640;BMP280;60912;48.968;10.124;2022-12-29T08:29:50;96145.69;;;8.90
71640;BMP280;60912;48.968;10.124;2022-12-29T08:32:16;96143.53;;;8.97
71640;BMP280;60912;48.968;10.124;2022-12-29T08:34:42;96141.34;;;9.03
71640;BMP280;60912;48.968;10.124;2022-12-29T08:37:07;96137.31;;;8.96
71640;BMP280;60912;48.968;10.124;2022-12-29T08:39:33;96141.03;;;9.06
71640;BMP280;60912;48.968;10.124;2022-12-29T08:41:59;96134.31;;;9.22
71640;BMP280;60912;48.968;10.124;2022-12-29T08:44:25;96122.47;;;9.35
71640;BMP280;60912;48.968;10.124;2022-12-29T08:46:50;96130.00;;;9.50
71640;BMP280;60912;48.968;10.124;2022-12-29T08:49:16;96125.06;;;9.56
71640;BMP280;60912;48.968;10.124;2022-12-29T08:51:41;96135.34;;;9.48
71640;BMP280;60912;48.968;10.124;2022-12-29T08:54:09;96131.16;;;9.54
71640;BMP280;60912;48.968;10.124;2022-12-29T08:59:39;96130.00;;;9.42
71640;BMP280;60912;48.968;10.124;2022-12-29T09:02:33;96127.25;;;9.50
71640;BMP280;60912;48.968;10.124;2022-12-29T09:05:13;96133.19;;;9.61
71640;BMP280;60912;48.968;10.124;2022-12-29T09:08:02;96133.94;;;9.77
71640;BMP280;60912;48.968;10.124;2022-12-29T09:14:12;96121.47;;;9.91
71640;BMP280;60912;48.968;10.124;2022-12-29T09:17:23;96124.81;;;9.97
71640;BMP280;60912;48.968;10.124;2022-12-29T09:20:33;96112.34;;;9.96
71640;BMP280;60912;48.968;10.124;2022-12-29T09:23:45;96118.22;;;10.15
71640;BMP280;60912;48.968;10.124;2022-12-29T09:29:38;96117.44;;;10.53
71640;BMP280;60912;48.968;10.124;2022-12-29T09:35:08;96133.22;;;10.60
71640;BMP280;60912;48.968;10.124;2022-12-29T09:37:52;96130.84;;;10.64
71640;BMP280;60912;48.968;10.124;2022-12-29T09:40:46;96126.97;;;10.82
71640;BMP280;60912;48.968;10.124;2022-12-29T09:46:38;96126.22;;;10.82
71640;BMP280;60912;48.968;10.124;2022-12-29T09:49:27;96125.84;;;10.78
71640;BMP280;60912;48.968;10.124;2022-12-29T09:52:24;96125.28;;;10.79
71640;BMP280;60912;48.968;10.124;2022-12-29T09:55:13;96126.38;;;10.76
71640;BMP280;60912;48.968;10.124;2022-12-29T09:57:50;96129.72;;;10.67
71640;BMP280;60912;48.968;10.124;2022-12-29T10:00:47;96121.84;;;10.56
71640;BMP280;60912;48.968;10.124;2022-12-29T10:06:56;96126.09;;;10.57
71640;BMP280;60912;48.968;10.124;2022-12-29T10:12:45;96123.13;;;10.55
71640;BMP280;60912;48.968;10.124;2022-12-29T10:24:10;96111.00;;;10.65
71640;BMP280;60912;48.968;10.124;2022-12-29T10:26:46;96104.91;;;10.67
71640;BMP280;60912;48.968;10.124;2022-12-29T10:29:32;96107.81;;;10.77
71640;BMP280;60912;48.968;10.124;2022-12-29T10:32:10;96113.53;;;10.79
71640;BMP280;60912;48.968;10.124;2022-12-29T10:34:54;96104.69;;;10.95
71640;BMP280;60912;48.968;10.124;2022-12-29T10:40:51;96120.53;;;11.27
71640;BMP280;60912;48.968;10.124;2022-12-29T10:43:47;96117.81;;;11.52
71640;BMP280;60912;48.968;10.124;2022-12-29T10:46:46;96115.97;;;11.54
71640;BMP280;60912;48.968;10.124;2022-12-29T10:49:18;96108.66;;;11.49
71640;BMP280;60912;48.968;10.124;2022-12-29T10:52:09;96112.66;;;11.56
71640;BMP280;60912;48.968;10.124;2022-12-29T10:54:58;96106.38;;;11.63
71640;BMP280;60912;48.968;10.124;2022-12-29T10:57:39;96106.06;;;11.76
71640;BMP280;60912;48.968;10.124;2022-12-29T11:00:26;96104.03;;;11.84
71640;BMP280;60912;48.968;10.124;2022-12-29T11:03:10;96108.56;;;11.89
71640;BMP280;60912;48.968;10.124;2022-12-29T11:09:17;96103.78;;;12.15
71640;BMP280;60912;48.968;10.124;2022-12-29T11:11:45;96102.50;;;12.33
71640;BMP280;60912;48.968;10.124;2022-12-29T11:17:23;96109.28;;;12.57
71640;BMP280;60912;48.968;10.124;2022-12-29T11:19:58;96104.00;;;12.85
71640;BMP280;60912;48.968;10.124;2022-12-29T11:22:44;96114.56;;;12.97
71640;BMP280;60912;48.968;10.124;2022-12-29T11:42:00;96100.88;;;12.99
71640;BMP280;60912;48.968;10.124;2022-12-29T11:51:31;96097.09;;;13.21
71640;BMP280;60912;48.968;10.124;2022-12-29T11:57:33;96085.13;;;13.18
71640;BMP280;60912;48.968;10.124;2022-12-29T12:00:48;96087.53;;;13.05
71640;BMP280;60912;48.968;10.124;2022-12-29T12:03:36;96088.19;;;13.13
71640;BMP280;60912;48.968;10.124;2022-12-29T12:06:32;96089.31;;;13.10
71640;BMP280;60912;48.968;10.124;2022-12-29T12:10:15;96090.97;;;12.96
71640;BMP280;60912;48.968;10.124;2022-12-29T12:13:02;96100.50;;;12.85
71640;BMP280;60912;48.968;10.124;2022-12-29T12:32:19;96084.47;;;12.83
71640;BMP280;60912;48.968;10.124;2022-12-29T12:34:52;96088.03;;;12.94
71640;BMP280;60912;48.968;10.124;2022-12-29T12:47:18;96099.03;;;12.67
71640;BMP280;60912;48.968;10.124;2022-12-29T13:00:45;96113.69;;;12.77
71640;BMP280;60912;48.968;10.124;2022-12-29T13:18:34;96093.41;;;12.92
71640;BMP280;60912;48.968;10.124;2022-12-29T13:21:22;96097.88;;;13.04
71640;BMP280;60912;48.968;10.124;2022-12-29T13:26:48;96104.06;;;12.95
71640;BMP280;60912;48.968;10.124;2022-12-29T13:35:19;96094.72;;;12.73
71640;BMP280;60912;48.968;10.124;2022-12-29T13:40:32;96095.53;;;12.66
71640;BMP280;60912;48.968;10.124;2022-12-29T13:43:00;96104.22;;;12.46
71640;BMP280;60912;48.968;10.124;2022-12-29T13:45:38;96112.13;;;12.49
71640;BMP280;60912;48.968;10.124;2022-12-29T13:48:30;96108.28;;;12.44
71640;BMP280;60912;48.968;10.124;2022-12-29T13:51:50;96117.22;;;12.35
71640;BMP280;60912;48.968;10.124;2022-12-29T13:59:59;96119.09;;;12.33
71640;BMP280;60912;48.968;10.124;2022-12-29T14:08:04;96110.25;;;12.10
71640;BMP280;60912;48.968;10.124;2022-12-29T14:10:56;96112.38;;;12.19
71640;BMP280;60912;48.968;10.124;2022-12-29T14:13:25;96109.28;;;12.15
71640;BMP280;60912;48.968;10.124;2022-12-29T14:16:05;96111.44;;;12.24
71640;BMP280;60912;48.968;10.124;2022-12-29T14:18:43;96111.09;;;12.20
71640;BMP280;60912;48.968;10.124;2022-12-29T14:28:45;96116.13;;;12.14
71640;BMP280;60912;48.968;10.124;2022-12-29T14:37:04;96113.94;;;11.87
71640;BMP280;60912;48.968;10.124;2022-12-29T14:43:25;96110.59;;;11.64
71640;BMP280;60912;48.968;10.124;2022-12-29T14:46:00;96113.69;;;11.68
71640;BMP280;60912;48.968;10.124;2022-12-29T14:49:08;96118.66;;;11.70
71640;BMP280;60912;48.968;10.124;2022-12-29T14:51:43;96114.78;;;11.73
71640;BMP280;60912;48.968;10.124;2022-12-29T14:57:05;96115.53;;;11.73
71640;BMP280;60912;48.968;10.124;2022-12-29T14:59:52;96115.69;;;11.75
71640;BMP280;60912;48.968;10.124;2022-12-29T15:02:26;96113.06;;;11.77
71640;BMP280;60912;48.968;10.124;2022-12-29T15:05:10;96114.34;;;11.76
71640;BMP280;60912;48.968;10.124;2022-12-29T15:08:01;96130.44;;;11.70
71640;BMP280;60912;48.968;10.124;2022-12-29T15:10:40;96130.97;;;11.69
71640;BMP280;60912;48.968;10.124;2022-12-29T15:13:44;96113.34;;;11.64
71640;BMP280;60912;48.968;10.124;2022-12-29T15:16:31;96111.09;;;11.70
71640;BMP280;60912;48.968;10.124;2022-12-29T15:19:26;96110.63;;;11.57
71640;BMP280;60912;48.968;10.124;2022-12-29T15:21:55;96110.78;;;11.66
71640;BMP280;60912;48.968;10.124;2022-12-29T15:24:26;96114.78;;;11.73
71640;BMP280;60912;48.968;10.124;2022-12-29T15:27:19;96104.66;;;11.68
71640;BMP280;60912;48.968;10.124;2022-12-29T15:29:46;96113.13;;;11.70
71640;BMP280;60912;48.968;10.124;2022-12-29T15:32:19;96106.53;;;11.65
71640;BMP280;60912;48.968;10.124;2022-12-29T15:34:53;96117.03;;;11.59
71640;BMP280;60912;48.968;10.124;2022-12-29T15:37:42;96111.56;;;11.51
71640;BMP280;60912;48.968;10.124;2022-12-29T15:40:27;96119.28;;;11.53
71640;BMP280;60912;48.968;10.124;2022-12-29T15:45:46;96126.72;;;11.43
71640;BMP280;60912;48.968;10.124;2022-12-29T15:48:30;96125.63;;;11.38
71640;BMP280;60912;48.968;10.124;2022-12-29T15:51:31;96110.16;;;11.43
71640;BMP280;60912;48.968;10.124;2022-12-29T15:57:23;96122.81;;;11.46
71640;BMP280;60912;48.968;10.124;2022-12-29T15:59:56;96131.47;;;11.50
71640;BMP280;60912;48.968;10.124;2022-12-29T16:02:28;96135.53;;;11.49
71640;BMP280;60912;48.968;10.124;2022-12-29T16:05:45;96134.41;;;11.44
71640;BMP280;60912;48.968;10.124;2022-12-29T16:08:36;96136.84;;;11.40
71640;BMP280;60912;48.968;10.124;2022-12-29T16:11:40;96127.81;;;11.40
71640;BMP280;60912;48.968;10.124;2022-12-29T16:14:30;96130.97;;;11.36
71640;BMP280;60912;48.968;10.124;2022-12-29T16:20:42;96128.25;;;11.29
71640;BMP280;60912;48.968;10.124;2022-12-29T16:23:18;96117.25;;;11.14
71640;BMP280;60912;48.968;10.124;2022-12-29T16:26:11;96131.28;;;11.08
71640;BMP280;60912;48.968;10.124;2022-12-29T16:28:45;96131.66;;;11.12
71640;BMP280;60912;48.968;10.124;2022-12-29T16:34:44;96146.13;;;11.20
71640;BMP280;60912;48.968;10.124;2022-12-29T16:40:29;96175.16;;;11.29
71640;BMP280;60912;48.968;10.124;2022-12-29T16:43:27;96193.34;;;11.32
71640;BMP280;60912;48.968;10.124;2022-12-29T16:51:06;96227.28;;;10.87
71640;BMP280;60912;48.968;10.124;2022-12-29T16:54:13;96237.03;;;10.80
71640;BMP280;60912;48.968;10.124;2022-12-29T16:56:54;96229.47;;;10.58
71640;BMP280;60912;48.968;10.124;2022-12-29T16:59:32;96229.84;;;10.47
71640;BMP280;60912;48.968;10.124;2022-12-29T17:02:11;96231.66;;;10.52
71640;BMP280;60912;48.968;10.124;2022-12-29T17:04:50;96237.19;;;10.52
71640;BMP280;60912;48.968;10.124;2022-12-29T17:07:59;96228.94;;;10.37
71640;BMP280;60912;48.968;10.124;2022-12-29T17:19:51;96211.09;;;10.30
71640;BMP280;60912;48.968;10.124;2022-12-29T17:22:28;96211.31;;;10.25
71640;BMP280;60912;48.968;10.124;2022-12-29T17:24:56;96221.38;;;10.22
71640;BMP280;60912;48.968;10.124;2022-12-29T17:28:01;96223.75;;;10.10
71640;BMP280;60912;48.968;10.124;2022-12-29T17:33:45;96223.91;;;10.12
71640;BMP280;60912;48.968;10.124;2022-12-29T17:36:13;96223.56;;;10.16
71640;BMP280;60912;48.968;10.124;2022-12-29T17:38:41;96223.91;;;10.05
71640;BMP280;60912;48.968;10.124;2022-12-29T17:41:13;96223.91;;;10.05
71640;BMP280;60912;48.968;10.124;2022-12-29T17:44:08;96224.66;;;9.98
71640;BMP280;60912;48.968;10.124;2022-12-29T17:46:42;96220.41;;;9.97
71640;BMP280;60912;48.968;10.124;2022-12-29T17:49:18;96240.75;;;9.94
71640;BMP280;60912;48.968;10.124;2022-12-29T17:51:45;96231.56;;;9.91
71640;BMP280;60912;48.968;10.124;2022-12-29T17:54:22;96233.41;;;9.89
71640;BMP280;60912;48.968;10.124;2022-12-29T17:56:54;96235.63;;;9.90
71640;BMP280;60912;48.968;10.124;2022-12-29T17:59:19;96242.56;;;9.91
71640;BMP280;60912;48.968;10.124;2022-12-29T18:01:47;96227.16;;;9.88
71640;BMP280;60912;48.968;10.124;2022-12-29T18:04:17;96242.97;;;9.95
71640;BMP280;60912;48.968;10.124;2022-12-29T18:06:48;96238.53;;;9.92
71640;BMP280;60912;48.968;10.124;2022-12-29T18:09:14;96252.31;;;9.92
71640;BMP280;60912;48.968;10.124;2022-12-29T18:11:51;96238.00;;;9.94
71640;BMP280;60912;48.968;10.124;2022-12-29T18:14:17;96246.66;;;9.98
71640;BMP280;60912;48.968;10.124;2022-12-29T18:16:46;96260.78;;;10.02
71640;BMP280;60912;48.968;10.124;2022-12-29T18:19:11;96246.25;;;9.94
71640;BMP280;60912;48.968;10.124;2022-12-29T18:21:46;96251.22;;;9.95
71640;BMP280;60912;48.968;10.124;2022-12-29T18:24:13;96245.16;;;9.89
71640;BMP280;60912;48.968;10.124;2022-12-29T18:27:01;96251.91;;;9.73
71640;BMP280;60912;48.968;10.124;2022-12-29T18:29:30;96237.03;;;9.76